Time;durP1;ratioP1;P1;durP2;ratioP2;P2;SDS_P1;SDS_P2;PMS_P1;PMS_P2;Temp;Humidity;BMP_temperature;BMP_pressure;BME280_temperature;BME280_humidity;BME280_pressure;Samples;Min_cycle;Max_cycle;Signal;HPM_P1;HPM_P2
2021/10/16 00:01:13;;;;;;;1.20;1.10;;;7.20;99.90;;;;;;5084968;28;20174;-71
2021/10/16 00:03:39;;;;;;;1.80;1.43;;;7.10;99.90;;;;;;5092671;28;20285;-71
2021/10/16 00:06:04;;;;;;;1.53;1.40;;;7.10;99.90;;;;;;5092230;28;20196;-70
2021/10/16 00:08:30;;;;;;;1.63;1.53;;;7.20;99.90;;;;;;5092292;28;20408;-70
2021/10/16 00:10:55;;;;;;;2.07;1.53;;;7.30;99.90;;;;;;5081717;28;20170;-70
2021/10/16 00:13:24;;;;;;;2.33;2.23;;;7.10;99.90;;;;;;5090226;28;20686;-70
2021/10/16 00:15:49;;;;;;;5.30;1.50;;;7.10;99.90;;;;;;5092206;28;20202;-70
2021/10/16 00:18:15;;;;;;;1.53;1.43;;;7.10;99.90;;;;;;5090600;28;21024;-70
2021/10/16 00:20:41;;;;;;;3.47;3.17;;;7.20;99.90;;;;;;5091998;28;20168;-69
2021/10/16 00:23:06;;;;;;;4.23;1.87;;;7.20;99.90;;;;;;5091602;28;20543;-70
2021/10/16 00:25:32;;;;;;;2.53;1.60;;;7.20;99.90;;;;;;5092112;28;20177;-70
2021/10/16 00:27:58;;;;;;;2.97;2.47;;;7.20;99.90;;;;;;5092409;28;20208;-69
2021/10/16 00:30:23;;;;;;;2.17;2.07;;;7.20;99.90;;;;;;5091651;28;20207;-70
2021/10/16 00:32:49;;;;;;;1.87;1.77;;;7.20;99.90;;;;;;5091992;28;20513;-69
2021/10/16 00:35:14;;;;;;;2.70;1.80;;;7.30;99.90;;;;;;5079089;28;20186;-71
2021/10/16 00:37:40;;;;;;;1.67;1.57;;;7.10;99.90;;;;;;5071845;28;20311;-70
2021/10/16 00:40:07;;;;;;;5.13;2.10;;;7.00;99.90;;;;;;5078036;28;20170;-70
2021/10/16 00:42:46;;;;;;;2.30;2.00;;;7.00;99.90;;;;;;5078483;28;20209;-72
2021/10/16 00:45:12;;;;;;;2.90;2.20;;;6.90;99.90;;;;;;5092091;28;20499;-69
2021/10/16 00:47:37;;;;;;;1.63;1.53;;;6.90;99.90;;;;;;5098470;28;20649;-70
2021/10/16 00:50:03;;;;;;;3.27;1.67;;;6.90;99.90;;;;;;5098622;28;20954;-70
2021/10/16 00:52:29;;;;;;;4.40;1.10;;;6.90;99.90;;;;;;5097204;28;20179;-71
2021/10/16 00:54:54;;;;;;;4.83;1.17;;;6.90;99.90;;;;;;5098406;28;20419;-71
2021/10/16 00:57:20;;;;;;;1.57;1.30;;;6.80;99.90;;;;;;5098434;28;20204;-71
2021/10/16 00:59:46;;;;;;;1.37;1.27;;;6.90;99.90;;;;;;5098434;28;20249;-69
2021/10/16 01:02:19;;;;;;;3.93;1.60;;;6.90;99.90;;;;;;5098308;28;20194;-70
2021/10/16 01:04:46;;;;;;;1.97;1.40;;;6.90;99.90;;;;;;5096719;28;20924;-71
2021/10/16 01:07:12;;;;;;;9.50;1.80;;;6.90;99.90;;;;;;5097300;28;20801;-70
2021/10/16 01:09:38;;;;;;;1.90;1.73;;;6.80;99.90;;;;;;5078303;28;20937;-70
2021/10/16 01:12:04;;;;;;;5.53;2.17;;;6.90;99.90;;;;;;5089902;28;20427;-71
2021/10/16 01:14:30;;;;;;;2.50;2.13;;;6.80;99.90;;;;;;5097621;28;20414;-71
2021/10/16 01:16:58;;;;;;;1.40;1.20;;;6.80;99.90;;;;;;5098125;28;20419;-70
2021/10/16 01:19:25;;;;;;;3.07;2.20;;;6.80;99.90;;;;;;5092457;28;20227;-70
2021/10/16 01:21:52;;;;;;;4.40;1.90;;;6.70;99.90;;;;;;5097952;28;20818;-70
2021/10/16 01:24:18;;;;;;;2.30;1.40;;;6.60;99.90;;;;;;5098217;28;20399;-70
2021/10/16 01:26:48;;;;;;;3.47;1.63;;;6.70;99.90;;;;;;5098054;28;20427;-71
2021/10/16 01:29:21;;;;;;;8.30;2.03;;;6.60;99.90;;;;;;5097980;28;20427;-71
2021/10/16 01:31:47;;;;;;;4.67;2.07;;;6.60;99.90;;;;;;5098156;28;20399;-70
2021/10/16 01:34:14;;;;;;;2.43;2.23;;;6.50;99.90;;;;;;5097963;28;20431;-70
2021/10/16 01:36:43;;;;;;;2.20;2.00;;;6.50;99.90;;;;;;5098181;28;20424;-71
2021/10/16 01:39:09;;;;;;;2.17;1.93;;;6.50;99.90;;;;;;5097981;28;20910;-70
2021/10/16 01:41:35;;;;;;;10.67;2.70;;;6.60;99.90;;;;;;5097835;28;20442;-70
2021/10/16 01:44:02;;;;;;;2.70;2.50;;;6.80;99.90;;;;;;5097707;28;20888;-70
2021/10/16 01:46:27;;;;;;;3.83;2.00;;;6.70;99.90;;;;;;5097931;28;20217;-71
2021/10/16 01:48:53;;;;;;;2.07;1.60;;;6.60;99.90;;;;;;5097945;28;20446;-70
2021/10/16 01:51:18;;;;;;;3.23;2.40;;;6.70;99.90;;;;;;5093735;28;20170;-70
2021/10/16 01:53:47;;;;;;;2.70;1.63;;;6.70;99.90;;;;;;5094758;28;20178;-70
2021/10/16 01:56:12;;;;;;;2.77;1.50;;;6.80;99.90;;;;;;5094418;28;20193;-69
2021/10/16 01:58:38;;;;;;;1.20;1.00;;;6.80;99.90;;;;;;5092338;28;20408;-69
2021/10/16 02:01:03;;;;;;;2.90;1.03;;;6.80;99.90;;;;;;5089105;28;20373;-70
2021/10/16 02:03:29;;;;;;;3.43;1.77;;;6.70;99.90;;;;;;5094426;28;20201;-70
2021/10/16 02:05:54;;;;;;;2.10;1.33;;;6.70;99.90;;;;;;5094608;28;20166;-70
2021/10/16 02:08:20;;;;;;;1.60;0.90;;;6.80;99.90;;;;;;5094999;28;20161;-70
2021/10/16 02:10:45;;;;;;;2.70;1.30;;;6.80;99.90;;;;;;5094570;28;20628;-69
2021/10/16 02:13:11;;;;;;;1.03;0.93;;;6.80;99.90;;;;;;5094159;28;20266;-70
2021/10/16 02:15:36;;;;;;;1.73;0.97;;;6.80;99.90;;;;;;5094213;28;20170;-70
2021/10/16 02:18:02;;;;;;;1.10;0.90;;;6.90;99.90;;;;;;5093780;28;20197;-70
2021/10/16 02:20:28;;;;;;;1.03;0.80;;;6.90;99.90;;;;;;5094016;28;20193;-70
2021/10/16 02:22:53;;;;;;;1.27;1.17;;;6.90;99.90;;;;;;5094001;28;20327;-70
2021/10/16 02:25:18;;;;;;;0.90;0.90;;;7.00;99.90;;;;;;5093902;28;20165;-70
2021/10/16 02:27:44;;;;;;;1.43;0.87;;;6.90;99.90;;;;;;5093111;28;20584;-70
2021/10/16 02:30:10;;;;;;;1.40;1.30;;;6.90;99.90;;;;;;5094088;28;20197;-69
2021/10/16 02:32:36;;;;;;;1.27;1.00;;;6.90;99.90;;;;;;5094152;28;20545;-69
2021/10/16 02:35:02;;;;;;;3.07;1.00;;;6.80;99.90;;;;;;5094106;28;20212;-70
2021/10/16 02:37:27;;;;;;;2.30;1.07;;;6.90;99.90;;;;;;5093964;28;20420;-70
2021/10/16 02:39:53;;;;;;;4.90;1.33;;;6.90;99.90;;;;;;5093962;28;20767;-70
2021/10/16 02:42:18;;;;;;;1.03;0.93;;;6.80;99.90;;;;;;5092473;28;20208;-69
2021/10/16 02:44:44;;;;;;;1.17;0.80;;;6.80;99.90;;;;;;5093746;28;20663;-69
2021/10/16 02:47:09;;;;;;;1.47;0.97;;;6.80;99.90;;;;;;5093774;28;20182;-71
2021/10/16 02:49:35;;;;;;;6.23;1.10;;;6.80;99.90;;;;;;5093627;28;20247;-68
2021/10/16 02:52:00;;;;;;;2.40;1.00;;;6.70;99.90;;;;;;5093564;28;20184;-69
2021/10/16 02:54:26;;;;;;;0.80;0.80;;;6.70;99.90;;;;;;5093426;28;20636;-69
2021/10/16 02:56:51;;;;;;;1.50;1.00;;;6.60;99.90;;;;;;5093306;28;20480;-69
2021/10/16 02:59:17;;;;;;;0.80;0.80;;;6.60;99.90;;;;;;5093751;28;20180;-70
2021/10/16 03:01:42;;;;;;;1.90;0.80;;;6.60;99.90;;;;;;5092988;28;20199;-70
2021/10/16 03:04:08;;;;;;;2.20;1.10;;;6.70;99.90;;;;;;5093212;28;20168;-70
2021/10/16 03:06:33;;;;;;;1.73;0.97;;;6.70;99.90;;;;;;5093340;28;20194;-70
2021/10/16 03:08:59;;;;;;;2.20;1.37;;;6.70;99.90;;;;;;5093207;28;20169;-70
2021/10/16 03:11:24;;;;;;;0.90;0.90;;;6.70;99.90;;;;;;5092845;28;20181;-70
2021/10/16 03:13:50;;;;;;;1.73;1.17;;;6.60;99.90;;;;;;5093014;28;20186;-70
2021/10/16 03:16:16;;;;;;;9.53;1.30;;;6.60;99.90;;;;;;5093145;28;20194;-69
2021/10/16 03:18:43;;;;;;;1.50;0.77;;;6.60;99.90;;;;;;5094174;28;20192;-70
2021/10/16 03:21:08;;;;;;;1.20;1.10;;;6.70;99.90;;;;;;5092968;28;20457;-70
2021/10/16 03:23:34;;;;;;;2.10;0.80;;;6.60;99.90;;;;;;5092711;28;20482;-70
2021/10/16 03:25:59;;;;;;;0.80;0.80;;;6.70;99.90;;;;;;5092715;28;20171;-70
2021/10/16 03:28:25;;;;;;;6.33;1.30;;;6.70;99.90;;;;;;5093018;28;20166;-70
2021/10/16 03:30:50;;;;;;;1.27;1.17;;;6.70;99.90;;;;;;5092877;28;20173;-69
2021/10/16 03:33:16;;;;;;;3.80;1.23;;;6.80;99.90;;;;;;5092787;28;20205;-70
2021/10/16 03:35:41;;;;;;;1.37;0.90;;;6.80;99.90;;;;;;5092650;28;20170;-70
2021/10/16 03:38:07;;;;;;;1.90;1.10;;;6.80;99.90;;;;;;5092601;28;20231;-69
2021/10/16 03:40:32;;;;;;;1.30;0.90;;;6.80;99.90;;;;;;5092557;28;20166;-71
2021/10/16 03:42:58;;;;;;;2.03;1.43;;;6.90;99.90;;;;;;5092508;28;20263;-70
2021/10/16 03:45:24;;;;;;;3.47;1.10;;;6.90;99.90;;;;;;5092626;28;20525;-70
2021/10/16 03:47:49;;;;;;;2.40;1.30;;;6.90;99.90;;;;;;5092550;28;20431;-71
2021/10/16 03:50:14;;;;;;;0.90;0.90;;;7.00;99.90;;;;;;5092694;28;20178;-71
2021/10/16 03:52:40;;;;;;;1.13;0.93;;;7.00;99.90;;;;;;5092560;28;20174;-70
2021/10/16 03:55:07;;;;;;;2.20;1.00;;;7.00;99.90;;;;;;5092380;28;20619;-70
2021/10/16 03:57:33;;;;;;;2.43;1.23;;;7.00;99.90;;;;;;5092389;28;20201;-69
2021/10/16 03:59:58;;;;;;;1.57;0.90;;;7.00;99.90;;;;;;5092248;28;20431;-70
2021/10/16 04:02:26;;;;;;;1.30;1.20;;;7.10;99.90;;;;;;5092338;28;20832;-70
2021/10/16 04:04:51;;;;;;;1.47;1.03;;;7.10;99.90;;;;;;5092183;28;20169;-70
2021/10/16 04:07:17;;;;;;;0.90;0.90;;;7.10;99.90;;;;;;5092528;28;20429;-70
2021/10/16 04:09:42;;;;;;;1.57;1.47;;;7.10;99.90;;;;;;5092422;28;20639;-70
2021/10/16 04:12:08;;;;;;;1.87;1.70;;;7.10;99.90;;;;;;5092242;28;20234;-70
2021/10/16 04:14:34;;;;;;;2.30;2.10;;;7.20;99.90;;;;;;5091568;28;20260;-70
2021/10/16 04:17:00;;;;;;;2.60;2.40;;;7.20;99.90;;;;;;5092228;28;20230;-70
2021/10/16 04:19:25;;;;;;;7.77;2.63;;;7.30;99.90;;;;;;5092050;28;20482;-70
2021/10/16 04:21:50;;;;;;;2.60;2.40;;;7.30;99.90;;;;;;5091806;28;20177;-69
2021/10/16 04:24:16;;;;;;;5.00;2.20;;;7.30;99.90;;;;;;5091943;28;20162;-70
2021/10/16 04:26:41;;;;;;;2.43;2.13;;;7.30;99.90;;;;;;5091876;28;20656;-70
2021/10/16 04:29:07;;;;;;;3.63;1.93;;;7.30;99.90;;;;;;5092082;28;20175;-69
2021/10/16 04:31:33;;;;;;;3.30;2.37;;;7.30;99.90;;;;;;5091885;28;20175;-70
2021/10/16 04:33:59;;;;;;;3.13;2.20;;;7.30;99.90;;;;;;5091778;28;20179;-70
2021/10/16 04:36:24;;;;;;;2.50;2.30;;;7.40;99.90;;;;;;5092238;28;20189;-70
2021/10/16 04:38:50;;;;;;;1.70;1.60;;;7.40;99.90;;;;;;5091710;28;20412;-70
2021/10/16 04:41:17;;;;;;;3.77;2.40;;;7.40;99.90;;;;;;5092001;28;20603;-70
2021/10/16 04:43:43;;;;;;;2.17;1.77;;;7.40;99.90;;;;;;5091856;28;20842;-70
2021/10/16 04:46:10;;;;;;;4.43;1.73;;;7.40;99.90;;;;;;5091814;28;20408;-70
2021/10/16 04:48:40;;;;;;;4.27;3.10;;;7.40;99.90;;;;;;5091814;28;20422;-70
2021/10/16 04:51:06;;;;;;;2.37;2.10;;;7.50;99.90;;;;;;5091560;28;20469;-70
2021/10/16 04:53:31;;;;;;;5.47;2.67;;;7.50;99.90;;;;;;5091533;28;20405;-71
2021/10/16 04:55:57;;;;;;;2.70;2.50;;;7.50;99.90;;;;;;5091553;28;20184;-70
2021/10/16 04:58:22;;;;;;;1.80;1.70;;;7.50;99.90;;;;;;5091867;28;20169;-70
2021/10/16 05:00:47;;;;;;;4.67;3.33;;;7.50;99.90;;;;;;5091658;28;20228;-70
2021/10/16 05:03:13;;;;;;;6.57;2.60;;;7.50;99.90;;;;;;5091442;28;20210;-70
2021/10/16 05:05:38;;;;;;;3.10;2.50;;;7.60;99.90;;;;;;5091480;28;20168;-70
2021/10/16 05:08:04;;;;;;;1.40;1.30;;;7.60;99.90;;;;;;5091285;28;20186;-70
2021/10/16 05:10:30;;;;;;;2.23;2.03;;;7.60;99.90;;;;;;5091334;28;20260;-70
2021/10/16 05:12:55;;;;;;;4.90;1.37;;;7.60;99.90;;;;;;5091204;28;20412;-70
2021/10/16 05:15:21;;;;;;;1.60;1.23;;;7.60;99.90;;;;;;5091495;28;20170;-70
2021/10/16 05:17:46;;;;;;;1.30;1.20;;;7.60;99.90;;;;;;5091067;28;20186;-70
2021/10/16 05:20:12;;;;;;;1.67;1.07;;;7.60;99.90;;;;;;5091183;28;20271;-70
2021/10/16 05:22:37;;;;;;;1.30;1.20;;;7.70;99.90;;;;;;5090998;28;20198;-70
2021/10/16 05:25:03;;;;;;;1.23;1.13;;;7.70;99.90;;;;;;5092978;28;20166;-70
2021/10/16 05:27:28;;;;;;;0.90;0.90;;;7.70;99.90;;;;;;5095114;28;20250;-71
2021/10/16 05:29:54;;;;;;;3.07;1.00;;;7.70;99.90;;;;;;5095085;28;20229;-70
2021/10/16 05:32:19;;;;;;;3.93;1.00;;;7.70;99.90;;;;;;5095029;28;20526;-70
2021/10/16 05:34:44;;;;;;;1.63;1.30;;;7.70;99.90;;;;;;5094632;28;20175;-70
2021/10/16 05:37:11;;;;;;;1.73;1.13;;;7.80;99.90;;;;;;5094957;28;20203;-71
2021/10/16 05:39:37;;;;;;;12.03;1.53;;;7.80;99.90;;;;;;5094946;28;20675;-70
2021/10/16 05:42:02;;;;;;;5.43;1.20;;;7.80;99.90;;;;;;5094837;28;20396;-71
2021/10/16 05:44:28;;;;;;;1.73;1.20;;;7.80;99.90;;;;;;5094851;28;20626;-71
2021/10/16 05:46:54;;;;;;;1.90;0.90;;;7.80;99.90;;;;;;5094751;28;20212;-71
2021/10/16 05:49:19;;;;;;;1.77;0.80;;;7.80;99.90;;;;;;5094789;28;20894;-71
2021/10/16 05:51:45;;;;;;;1.70;0.90;;;7.80;99.90;;;;;;5094703;28;20211;-71
2021/10/16 05:54:10;;;;;;;2.10;1.10;;;7.80;99.90;;;;;;5094749;28;20661;-70
2021/10/16 05:56:36;;;;;;;4.70;1.40;;;7.80;99.90;;;;;;5094613;28;20226;-70
2021/10/16 05:59:01;;;;;;;1.33;1.10;;;7.90;99.90;;;;;;5094670;28;20165;-70
2021/10/16 06:01:27;;;;;;;1.90;1.03;;;7.90;99.90;;;;;;5094636;28;20220;-70
2021/10/16 06:03:53;;;;;;;1.10;1.00;;;7.90;99.90;;;;;;5094371;28;20201;-70
2021/10/16 06:06:18;;;;;;;1.30;1.20;;;7.90;99.90;;;;;;5094319;28;20214;-71
2021/10/16 06:08:43;;;;;;;1.53;1.43;;;7.90;99.90;;;;;;5094411;28;20585;-70
2021/10/16 06:11:09;;;;;;;1.53;1.30;;;7.90;99.90;;;;;;5094344;28;20207;-70
2021/10/16 06:13:35;;;;;;;1.33;1.00;;;8.00;99.90;;;;;;5094249;28;20258;-70
2021/10/16 06:16:00;;;;;;;2.00;1.10;;;7.90;99.90;;;;;;5093692;28;20180;-71
2021/10/16 06:18:26;;;;;;;0.90;0.90;;;7.90;99.90;;;;;;5093857;28;20204;-70
2021/10/16 06:20:52;;;;;;;3.90;1.17;;;8.00;99.90;;;;;;5093945;28;20188;-70
2021/10/16 06:23:17;;;;;;;3.03;1.00;;;8.00;99.90;;;;;;5093834;28;20973;-71
2021/10/16 06:25:43;;;;;;;2.33;1.20;;;8.00;99.90;;;;;;5094119;28;20173;-70
2021/10/16 06:28:13;;;;;;;4.07;1.37;;;8.00;99.90;;;;;;5094125;28;20672;-70
2021/10/16 06:30:40;;;;;;;1.37;1.17;;;8.00;99.90;;;;;;5094048;28;20166;-71
2021/10/16 06:33:05;;;;;;;2.30;0.90;;;8.10;99.90;;;;;;5094246;28;20455;-70
2021/10/16 06:35:31;;;;;;;1.57;1.20;;;8.20;99.90;;;;;;5093265;28;20408;-70
2021/10/16 06:37:56;;;;;;;1.00;0.90;;;8.20;99.90;;;;;;5093170;28;20610;-70
2021/10/16 06:40:22;;;;;;;1.47;1.37;;;8.30;99.90;;;;;;5093794;28;20538;-70
2021/10/16 06:42:47;;;;;;;1.40;1.20;;;8.30;99.90;;;;;;5093618;28;20195;-70
2021/10/16 06:45:13;;;;;;;2.97;0.90;;;8.40;99.90;;;;;;5093670;28;20174;-70
2021/10/16 06:47:38;;;;;;;1.20;1.10;;;8.30;99.90;;;;;;5093573;28;20194;-70
2021/10/16 06:50:04;;;;;;;1.23;1.13;;;8.40;99.90;;;;;;5093551;28;20256;-70
2021/10/16 06:52:29;;;;;;;0.83;0.83;;;8.40;99.90;;;;;;5093837;28;20313;-70
2021/10/16 06:54:55;;;;;;;1.33;0.80;;;8.40;99.90;;;;;;5093538;28;20169;-70
2021/10/16 06:57:20;;;;;;;2.43;0.90;;;8.40;99.90;;;;;;5093435;28;20691;-70
2021/10/16 06:59:46;;;;;;;1.67;1.37;;;8.40;99.90;;;;;;5093583;28;20178;-70
2021/10/16 07:02:11;;;;;;;4.27;1.77;;;8.30;99.90;;;;;;5093191;28;20290;-70
2021/10/16 07:04:37;;;;;;;1.33;1.23;;;8.40;99.90;;;;;;5093137;28;20170;-70
2021/10/16 07:07:02;;;;;;;2.73;1.20;;;9.20;99.90;;;;;;5093184;28;20188;-70
2021/10/16 07:09:28;;;;;;;1.60;1.50;;;9.60;99.90;;;;;;5093183;28;20173;-70
2021/10/16 07:11:53;;;;;;;2.30;1.30;;;9.40;99.90;;;;;;5093091;28;20257;-70
2021/10/16 07:14:19;;;;;;;1.07;0.97;;;10.00;99.90;;;;;;5093368;28;20721;-70
2021/10/16 07:16:44;;;;;;;2.60;1.20;;;9.80;99.90;;;;;;5093055;28;20558;-70
2021/10/16 07:19:10;;;;;;;0.80;0.80;;;10.10;99.90;;;;;;5091901;28;20570;-70
2021/10/16 07:21:35;;;;;;;1.00;0.80;;;10.60;99.90;;;;;;5092907;28;20184;-70
2021/10/16 07:24:01;;;;;;;2.27;1.20;;;11.30;99.90;;;;;;5092822;28;20642;-70
2021/10/16 07:26:28;;;;;;;1.90;1.10;;;11.70;99.90;;;;;;5092843;28;20186;-70
2021/10/16 07:29:08;;;;;;;2.13;1.30;;;12.30;99.90;;;;;;5093053;28;20445;-70
2021/10/16 07:31:34;;;;;;;2.00;1.10;;;13.20;99.90;;;;;;5091961;28;20449;-70
2021/10/16 07:34:00;;;;;;;3.47;1.30;;;13.40;99.90;;;;;;5092515;28;20926;-70
2021/10/16 07:36:32;;;;;;;1.77;1.20;;;13.70;99.90;;;;;;5092484;28;20270;-70
2021/10/16 07:38:57;;;;;;;1.90;1.33;;;13.20;99.90;;;;;;5092789;28;20406;-70
2021/10/16 07:41:23;;;;;;;1.50;1.40;;;13.20;99.90;;;;;;5092561;28;20405;-70
2021/10/16 07:43:48;;;;;;;3.87;1.40;;;13.30;99.90;;;;;;5092485;28;20548;-70
2021/10/16 07:46:14;;;;;;;1.60;1.20;;;13.60;99.90;;;;;;5092345;28;20539;-70
2021/10/16 07:48:39;;;;;;;1.00;0.90;;;12.80;99.90;;;;;;5091885;28;20160;-70
2021/10/16 07:51:05;;;;;;;1.93;1.60;;;13.20;99.90;;;;;;5092485;28;20168;-70
2021/10/16 07:53:30;;;;;;;2.37;1.40;;;13.00;99.90;;;;;;5092429;28;20183;-70
2021/10/16 07:55:56;;;;;;;1.60;1.13;;;13.20;99.90;;;;;;5092389;28;20195;-70
2021/10/16 07:58:22;;;;;;;2.20;1.20;;;14.30;99.90;;;;;;5092332;28;20627;-70
2021/10/16 08:00:48;;;;;;;2.40;1.10;;;13.20;99.90;;;;;;5092353;28;20285;-70
2021/10/16 08:03:13;;;;;;;2.70;1.10;;;13.70;99.90;;;;;;5082780;28;20550;-70
2021/10/16 08:05:39;;;;;;;2.60;1.83;;;13.80;99.90;;;;;;5072140;28;20176;-70
2021/10/16 08:08:04;;;;;;;2.90;1.27;;;12.80;99.90;;;;;;5071789;28;20179;-70
2021/10/16 08:10:30;;;;;;;2.00;1.67;;;12.20;99.90;;;;;;5071842;28;20179;-70
2021/10/16 08:12:55;;;;;;;1.37;1.10;;;11.70;99.90;;;;;;5091321;28;20257;-72
2021/10/16 08:15:21;;;;;;;2.13;1.30;;;11.30;99.90;;;;;;5091781;28;20178;-69
2021/10/16 08:17:46;;;;;;;1.73;1.37;;;11.10;99.90;;;;;;5091451;28;20182;-69
2021/10/16 08:20:12;;;;;;;2.00;1.50;;;11.20;99.90;;;;;;5091910;28;20546;-70
2021/10/16 08:22:42;;;;;;;2.13;1.43;;;11.70;99.90;;;;;;5091965;28;20200;-69
2021/10/16 08:25:09;;;;;;;3.17;1.47;;;11.90;99.90;;;;;;5091988;28;20165;-71
2021/10/16 08:27:35;;;;;;;3.33;1.37;;;12.30;99.90;;;;;;5092013;28;20779;-70
2021/10/16 08:30:00;;;;;;;1.83;1.30;;;12.70;99.90;;;;;;5091829;28;20411;-70
2021/10/16 08:32:26;;;;;;;2.80;1.53;;;12.10;99.90;;;;;;5091732;28;20594;-70
2021/10/16 08:34:51;;;;;;;1.10;1.00;;;12.10;99.90;;;;;;5091300;28;20183;-71
2021/10/16 08:37:17;;;;;;;2.93;1.33;;;11.60;99.90;;;;;;5091895;28;20693;-69
2021/10/16 08:39:42;;;;;;;2.33;1.70;;;11.80;99.90;;;;;;5071841;28;20522;-70
2021/10/16 08:42:08;;;;;;;2.63;1.60;;;11.80;99.90;;;;;;5071697;28;20227;-71
2021/10/16 08:44:35;;;;;;;2.00;1.33;;;11.90;99.90;;;;;;5071670;28;20187;-71
2021/10/16 08:47:01;;;;;;;3.27;1.17;;;12.00;99.90;;;;;;5071450;28;20211;-70
2021/10/16 08:49:31;;;;;;;3.10;1.50;;;11.90;99.90;;;;;;5080014;28;20481;-70
2021/10/16 08:51:57;;;;;;;3.37;1.20;;;12.00;99.90;;;;;;5091656;28;20397;-69
2021/10/16 08:54:22;;;;;;;1.60;1.13;;;12.20;99.90;;;;;;5091661;28;20401;-70
2021/10/16 08:56:48;;;;;;;1.47;1.10;;;11.80;99.90;;;;;;5091605;28;20431;-70
2021/10/16 08:59:13;;;;;;;1.47;1.23;;;11.70;99.90;;;;;;5091932;28;20231;-69
2021/10/16 09:01:58;;;;;;;1.63;1.20;;;11.60;99.90;;;;;;5095741;28;20170;-69
2021/10/16 09:04:24;;;;;;;1.13;0.70;;;11.60;99.90;;;;;;5095652;28;20636;-70
2021/10/16 09:06:49;;;;;;;2.07;1.10;;;11.70;99.90;;;;;;5095675;28;20423;-69
2021/10/16 09:09:16;;;;;;;1.23;1.00;;;11.70;99.90;;;;;;5095688;28;20172;-70
2021/10/16 09:11:44;;;;;;;1.93;1.20;;;12.00;99.90;;;;;;5094949;28;20205;-70
2021/10/16 09:14:11;;;;;;;1.87;1.33;;;11.90;99.90;;;;;;5095512;28;20804;-69
2021/10/16 09:16:42;;;;;;;2.50;1.00;;;11.90;99.90;;;;;;5095179;28;20444;-70
2021/10/16 09:19:15;;;;;;;2.60;0.97;;;11.90;99.90;;;;;;5095058;28;20995;-69
2021/10/16 09:21:53;;;;;;;1.30;0.93;;;12.20;99.90;;;;;;5095347;28;20431;-69
2021/10/16 09:24:26;;;;;;;3.53;1.90;;;12.50;99.90;;;;;;5094846;28;20451;-69
2021/10/16 09:26:55;;;;;;;3.93;2.47;;;12.50;99.90;;;;;;5095126;28;20416;-69
2021/10/16 09:29:22;;;;;;;3.00;2.20;;;12.60;99.90;;;;;;5095268;28;20406;-70
2021/10/16 09:31:52;;;;;;;3.63;1.83;;;13.00;99.90;;;;;;5095056;28;20396;-69
2021/10/16 09:34:31;;;;;;;3.13;2.10;;;12.70;99.90;;;;;;5094905;28;20785;-69
2021/10/16 09:37:15;;;;;;;2.70;1.50;;;12.80;99.90;;;;;;5094792;28;20424;-70
2021/10/16 09:40:01;;;;;;;3.10;1.27;;;12.30;99.90;;;;;;5095023;28;20494;-70
2021/10/16 09:42:40;;;;;;;1.10;1.00;;;12.50;99.90;;;;;;5094676;28;20546;-69
2021/10/16 09:45:09;;;;;;;1.87;1.20;;;13.10;99.90;;;;;;5094220;28;20495;-70
2021/10/16 09:47:35;;;;;;;1.70;1.40;;;13.40;99.90;;;;;;5094232;28;20447;-70
2021/10/16 09:50:06;;;;;;;3.90;1.43;;;13.90;99.90;;;;;;5093698;28;20409;-70
2021/10/16 09:52:40;;;;;;;1.70;1.30;;;13.50;99.90;;;;;;5094593;28;20913;-71
2021/10/16 09:55:08;;;;;;;1.37;0.83;;;13.20;99.90;;;;;;5094093;28;20414;-70
2021/10/16 09:57:34;;;;;;;1.30;0.80;;;13.20;99.90;;;;;;5094290;28;20437;-71
2021/10/16 10:00:00;;;;;;;6.90;1.20;;;13.10;99.90;;;;;;5094635;28;20401;-71
2021/10/16 10:02:30;;;;;;;1.63;1.10;;;12.90;99.90;;;;;;5094307;28;20467;-71
2021/10/16 10:04:56;;;;;;;1.60;0.90;;;12.90;99.90;;;;;;5094374;28;20449;-71
2021/10/16 10:07:24;;;;;;;2.83;1.20;;;13.30;99.90;;;;;;5094488;28;20420;-71
2021/10/16 10:09:50;;;;;;;1.20;1.10;;;13.20;99.90;;;;;;5094540;28;20391;-71
2021/10/16 10:12:16;;;;;;;1.80;1.37;;;13.10;99.90;;;;;;5093122;28;20423;-71
2021/10/16 10:14:50;;;;;;;0.73;0.70;;;13.00;99.90;;;;;;5094073;28;20414;-71
2021/10/16 10:17:22;;;;;;;7.63;1.20;;;13.00;99.90;;;;;;5094147;28;20429;-71
2021/10/16 10:19:53;;;;;;;2.50;1.17;;;13.20;99.90;;;;;;5092752;28;20458;-71
2021/10/16 10:22:20;;;;;;;2.10;2.00;;;12.70;99.90;;;;;;5094372;28;20449;-71
2021/10/16 10:24:53;;;;;;;1.47;0.90;;;12.80;99.90;;;;;;5093930;28;20431;-71
2021/10/16 10:27:22;;;;;;;2.07;0.73;;;13.00;99.90;;;;;;5093958;28;20946;-71
2021/10/16 10:29:50;;;;;;;1.53;1.10;;;12.80;99.90;;;;;;5094016;28;20403;-71
2021/10/16 10:32:19;;;;;;;3.60;1.27;;;12.50;99.90;;;;;;5093913;28;20925;-71
2021/10/16 10:35:00;;;;;;;0.97;0.90;;;12.90;99.90;;;;;;5093818;28;20404;-71
2021/10/16 10:37:49;;;;;;;1.37;0.80;;;13.00;99.90;;;;;;5093928;28;20420;-71
2021/10/16 10:40:15;;;;;;;2.03;0.90;;;12.90;99.90;;;;;;5092626;28;20492;-71
2021/10/16 10:42:44;;;;;;;1.57;1.10;;;13.20;99.90;;;;;;5093540;28;20548;-70
2021/10/16 10:45:28;;;;;;;2.47;1.00;;;13.00;99.90;;;;;;5093581;28;20258;-71
2021/10/16 10:48:02;;;;;;;3.00;0.73;;;13.50;99.90;;;;;;5093617;28;20499;-71
2021/10/16 10:50:48;;;;;;;1.10;0.90;;;13.80;99.90;;;;;;5093823;28;20840;-71
2021/10/16 10:53:29;;;;;;;1.20;0.80;;;13.50;99.90;;;;;;5093557;28;20449;-70
2021/10/16 10:55:57;;;;;;;0.87;0.80;;;13.70;99.90;;;;;;5093106;28;20406;-72
2021/10/16 10:58:43;;;;;;;1.10;0.90;;;13.70;99.90;;;;;;5093505;28;20415;-75
2021/10/16 11:01:09;;;;;;;1.00;0.90;;;13.90;99.90;;;;;;5093290;28;20427;-71
2021/10/16 11:03:38;;;;;;;0.80;0.80;;;13.50;99.90;;;;;;5093074;28;20445;-72
2021/10/16 11:06:09;;;;;;;4.40;0.90;;;13.70;99.90;;;;;;5093468;28;20166;-72
2021/10/16 11:08:36;;;;;;;0.87;0.80;;;13.40;99.90;;;;;;5093472;28;20458;-70
2021/10/16 11:11:03;;;;;;;1.07;0.90;;;13.50;99.90;;;;;;5093552;28;20415;-71
2021/10/16 11:13:32;;;;;;;1.67;0.80;;;13.60;99.90;;;;;;5092921;28;20414;-71
2021/10/16 11:15:59;;;;;;;1.00;0.90;;;14.00;99.90;;;;;;5092384;28;20472;-71
2021/10/16 11:18:26;;;;;;;0.83;0.80;;;14.30;99.90;;;;;;5092735;28;20439;-70
2021/10/16 11:20:52;;;;;;;1.23;0.90;;;14.50;99.90;;;;;;5092774;28;20515;-70
2021/10/16 11:23:22;;;;;;;1.37;0.60;;;14.50;99.90;;;;;;5092475;28;20906;-70
2021/10/16 11:25:59;;;;;;;0.80;0.80;;;13.50;99.90;;;;;;5092889;28;20169;-70
2021/10/16 11:28:26;;;;;;;2.87;0.90;;;13.30;99.90;;;;;;5092814;28;20779;-69
2021/10/16 11:30:54;;;;;;;0.90;0.80;;;13.50;99.90;;;;;;5092756;28;20512;-69
2021/10/16 11:33:21;;;;;;;0.90;0.60;;;13.40;99.90;;;;;;5092729;28;20746;-70
2021/10/16 11:35:48;;;;;;;0.70;0.70;;;13.40;99.90;;;;;;5092744;28;20403;-70
2021/10/16 11:38:16;;;;;;;2.03;1.00;;;13.50;99.90;;;;;;5091246;28;20435;-70
2021/10/16 11:40:42;;;;;;;1.13;0.90;;;13.40;99.90;;;;;;5092112;28;20400;-71
2021/10/16 11:43:12;;;;;;;1.10;1.00;;;13.10;99.90;;;;;;5092657;28;20951;-71
2021/10/16 11:45:39;;;;;;;1.43;0.90;;;13.20;99.90;;;;;;5092478;28;20400;-70
2021/10/16 11:48:12;;;;;;;0.70;0.70;;;13.50;99.90;;;;;;5091832;28;20431;-71
2021/10/16 11:50:41;;;;;;;1.20;0.93;;;13.30;99.90;;;;;;5084661;28;21033;-70
2021/10/16 11:53:09;;;;;;;1.17;0.80;;;13.40;99.90;;;;;;5071984;28;20483;-70
2021/10/16 11:55:36;;;;;;;2.77;0.70;;;13.30;99.90;;;;;;5072081;28;20447;-70
2021/10/16 11:58:07;;;;;;;1.03;0.90;;;13.10;99.90;;;;;;5072120;28;20536;-70
2021/10/16 12:00:34;;;;;;;1.53;0.67;;;13.20;99.90;;;;;;5072711;28;20412;-70
2021/10/16 12:03:10;;;;;;;1.70;0.87;;;13.30;99.90;;;;;;5072816;28;20455;-70
2021/10/16 12:05:36;;;;;;;3.07;1.27;;;13.20;99.90;;;;;;5079456;28;20407;-69
2021/10/16 12:08:19;;;;;;;1.20;1.10;;;13.30;99.90;;;;;;5092120;28;20489;-71
2021/10/16 12:10:50;;;;;;;3.80;1.00;;;13.20;99.90;;;;;;5092143;28;20564;-73
2021/10/16 12:13:30;;;;;;;2.57;0.90;;;13.00;99.90;;;;;;5090569;28;20830;-70
2021/10/16 12:15:56;;;;;;;2.30;1.27;;;13.00;99.90;;;;;;5092562;28;20991;-70
2021/10/16 12:18:25;;;;;;;1.10;1.00;;;13.00;99.90;;;;;;5092888;28;20427;-71
2021/10/16 12:21:03;;;;;;;1.03;0.90;;;13.20;99.90;;;;;;5092677;28;20487;-69
2021/10/16 12:23:44;;;;;;;1.57;0.90;;;13.20;99.90;;;;;;5092103;28;20447;-70
2021/10/16 12:26:25;;;;;;;1.30;1.00;;;13.10;99.90;;;;;;5092236;28;20407;-70
2021/10/16 12:28:52;;;;;;;1.27;1.00;;;13.20;99.90;;;;;;5087669;28;20455;-70
2021/10/16 12:31:20;;;;;;;1.10;0.80;;;13.30;99.90;;;;;;5092370;28;20412;-70
2021/10/16 12:34:00;;;;;;;1.53;0.80;;;13.30;99.90;;;;;;5091368;28;20426;-70
2021/10/16 12:36:38;;;;;;;0.77;0.77;;;13.10;99.90;;;;;;5091328;28;20431;-70
2021/10/16 12:39:11;;;;;;;1.53;0.90;;;12.70;99.90;;;;;;5087784;28;20499;-70
2021/10/16 12:41:45;;;;;;;2.13;0.70;;;12.90;99.90;;;;;;5090371;28;20407;-70
2021/10/16 12:44:12;;;;;;;1.10;0.80;;;12.70;99.90;;;;;;5072543;28;20468;-70
2021/10/16 12:46:37;;;;;;;0.87;0.87;;;12.90;99.90;;;;;;5071925;28;20476;-70
2021/10/16 12:49:03;;;;;;;2.00;0.90;;;12.90;99.90;;;;;;5072281;28;20495;-70
2021/10/16 12:51:43;;;;;;;1.23;0.93;;;12.90;99.90;;;;;;5072421;28;20174;-69
2021/10/16 12:54:08;;;;;;;2.40;0.70;;;12.80;99.90;;;;;;5087307;28;20185;-69